بكين, Beijing

04:39 AM CST on êèنêè 26, 2014 (GMT +0800)
Beijing Capital (ZBAA) Elev 115 ft | 40.07 °N, 116.59 °E | Change Station

Current weather conditions updated 9 minutes ago

Clear
صافية
72 °F
Feels Like 72 °F
N
2
ريح متغير ريح from متغير

Today is forecast to be Warmer than yesterday.

هذا اليوم
High -- | Low -- °F
--% Chance of Precip.
Yesterday
High -- | Low -- °F
Precip. -- في
5:05 AM 7:33 PM
الهلال الأخير, 1% visible
الضغط 29.74 في
وضوح الرؤية 4.3 أميال
سحابات
نقطة الندى 64 °F
الرطوبة 78%
Rainfall 0.00 في
عمق الثلج Not available.
الأشعة فوق البنفسجية Not available.
Pollen Not available.
جودة الهواء Not available.
Flu Activity Not available.
METAR ZBAA 252030Z VRB01MPS 7000 NSC 22/18 Q1007 NOSIG

More Conditions Fewer Conditions

الضغط 29.74 في
وضوح الرؤية 4.3 أميال
سحابات
نقطة الندى 64 °F
الرطوبة 78%
Rainfall 0.00 في
عمق الثلج Not available.
الأشعة فوق البنفسجية Not available.
Pollen Not available.
جودة الهواء Not available.
Flu Activity Not available.
METAR ZBAA 252030Z VRB01MPS 7000 NSC 22/18 Q1007 NOSIG

More Conditions Fewer Conditions

10-Day Weather Forecast

Almanac

علم الفلك

Jul. 26, 2014 Rise Set
Actual Time 5:05 AM CST 7:33 PM CST
Civil Twilight 4:34 AM CST 8:04 PM CST
Nautical Twilight 3:56 AM CST 8:43 PM CST
Astronomical Twilight 3:13 AM CST 9:25 PM CST
قمر 4:27 AM CST (7/26) 6:47 PM CST (7/26)
Length Of Visible Light 15h 29m
طول الیوم
14h 27m
Tomorrow will be 1m 48s shorter.
الهلال الأخير, 1% of the Moon is Illuminated
Jul 25
الهلال الأخير
Jul 26
New
Aug 3
الربع الاول
Aug 10
بدر
Aug 17
الربع الآخر

Yesterday's Extremes

Country Highs Country Lows

Community

WunderPhotos

Upload Photos

1,737,397 photos uploaded!

Nearby

جودة الهواء

Not available.

عمق الثلج

Not available.

Earthquake Activity

City Distance Mag. Time & Date
No recent earthquake activity has been reported nearby.
Minimum magnitude displayed is 2.5.

Coastal Water Temperatures

مكان درجات الحرارة
No Stations Reporting

Nearby Weather Stations

There are no personal weather stations in this area.